Time;durP1;ratioP1;P1;durP2;ratioP2;P2;SDS_P1;SDS_P2;PMS_P1;PMS_P2;Temp;Humidity;BMP_temperature;BMP_pressure;BME280_temperature;BME280_humidity;BME280_pressure;Samples;Min_cycle;Max_cycle;Signal;HPM_P1;HPM_P2
2022/08/12 00:43:27;;;;;;;6.95;4.40;;;18.50;99.90;;;;;;5020407;28;20038;-78
2022/08/12 00:48:38;;;;;;;9.07;5.90;;;18.50;99.90;;;;;;5034089;28;20490;-78
2022/08/12 00:51:06;;;;;;;8.82;5.40;;;18.40;99.90;;;;;;5001401;28;20033;-78
2022/08/12 00:53:32;;;;;;;8.43;5.10;;;18.40;99.90;;;;;;5017638;28;20038;-78
2022/08/12 00:56:00;;;;;;;9.18;5.18;;;18.40;99.90;;;;;;5027702;28;20030;-78
2022/08/12 00:58:28;;;;;;;9.55;5.50;;;18.40;99.90;;;;;;5010365;28;20049;-78
2022/08/12 01:01:06;;;;;;;8.40;4.70;;;18.40;99.90;;;;;;5017831;28;20113;-78
2022/08/12 01:11:53;;;;;;;7.05;4.93;;;18.40;99.90;;;;;;5034191;28;20106;-78
2022/08/12 01:14:22;;;;;;;8.25;5.63;;;18.30;99.90;;;;;;5033861;28;20037;-78
2022/08/12 01:16:51;;;;;;;9.18;6.00;;;18.30;99.90;;;;;;5017420;28;20087;-78
2022/08/12 01:19:20;;;;;;;10.23;6.70;;;18.20;99.90;;;;;;5033684;28;20041;-78
2022/08/12 01:22:24;;;;;;;9.55;6.18;;;18.10;99.90;;;;;;5017178;28;20038;-78
2022/08/12 01:25:16;;;;;;;9.98;6.75;;;18.00;99.90;;;;;;5017608;28;20041;-78
2022/08/12 01:27:42;;;;;;;8.85;5.57;;;18.00;99.90;;;;;;5039322;28;20554;-78
2022/08/12 01:30:13;;;;;;;10.55;6.55;;;17.90;99.90;;;;;;5033398;28;20047;-78
2022/08/12 01:32:40;;;;;;;9.32;6.47;;;17.90;99.90;;;;;;5017300;28;20131;-78
2022/08/12 01:35:12;;;;;;;7.97;5.65;;;17.90;99.90;;;;;;5033373;28;20084;-78
2022/08/12 01:38:00;;;;;;;9.38;6.50;;;17.90;99.90;;;;;;5033713;28;20484;-78
2022/08/12 01:40:29;;;;;;;9.45;5.72;;;17.90;99.90;;;;;;5032879;28;20045;-78
2022/08/12 01:43:01;;;;;;;8.93;5.40;;;18.00;99.90;;;;;;5033582;28;20115;-78
2022/08/12 01:45:29;;;;;;;8.18;5.53;;;17.90;99.90;;;;;;5033123;28;20045;-77
2022/08/12 01:48:22;;;;;;;9.70;6.68;;;18.00;99.90;;;;;;5017275;28;20555;-78
2022/08/12 01:51:30;;;;;;;8.85;5.85;;;18.00;99.90;;;;;;5013268;28;20041;-78
2022/08/12 01:54:13;;;;;;;8.00;5.22;;;17.90;99.90;;;;;;5014040;28;20099;-78
2022/08/12 01:57:00;;;;;;;10.60;6.32;;;18.00;99.90;;;;;;5033360;28;20045;-78
2022/08/12 01:59:55;;;;;;;7.18;4.88;;;17.90;99.90;;;;;;5032647;28;20045;-78
2022/08/12 02:02:52;;;;;;;8.38;5.38;;;18.00;99.90;;;;;;5033035;28;20048;-78
2022/08/12 02:12:08;;;;;;;9.27;5.45;;;17.90;99.90;;;;;;5032567;28;20038;-78
2022/08/12 02:14:56;;;;;;;9.65;5.85;;;17.90;99.90;;;;;;5032308;28;20044;-78
2022/08/12 02:17:46;;;;;;;8.95;6.60;;;17.90;99.90;;;;;;5032860;28;20045;-78
2022/08/12 02:20:22;;;;;;;8.27;6.13;;;17.90;99.90;;;;;;5015506;28;20099;-77
2022/08/12 02:22:50;;;;;;;7.55;4.97;;;17.90;99.90;;;;;;5016158;28;20049;-78
2022/08/12 02:25:31;;;;;;;8.82;6.38;;;17.80;99.90;;;;;;5032403;28;20041;-78
2022/08/12 02:27:57;;;;;;;8.13;5.93;;;17.80;99.90;;;;;;5032622;28;20115;-78
2022/08/12 02:30:28;;;;;;;9.38;6.72;;;17.80;99.90;;;;;;5022496;28;20037;-78
2022/08/12 02:32:55;;;;;;;9.48;6.10;;;17.80;99.90;;;;;;5017481;28;20045;-78
2022/08/12 02:35:23;;;;;;;10.35;7.07;;;17.80;99.90;;;;;;4999186;28;20401;-78
2022/08/12 02:37:55;;;;;;;8.90;6.07;;;17.80;99.90;;;;;;5029693;28;20392;-77
2022/08/12 02:40:23;;;;;;;8.35;6.10;;;17.80;99.90;;;;;;5018640;28;20497;-78
2022/08/12 02:43:03;;;;;;;8.55;6.03;;;17.70;99.90;;;;;;5032247;28;20056;-78
2022/08/12 02:45:55;;;;;;;8.50;6.60;;;17.70;99.90;;;;;;5032092;28;20049;-78
2022/08/12 02:48:36;;;;;;;9.63;6.60;;;17.60;99.90;;;;;;5015774;28;20492;-78
2022/08/12 02:51:08;;;;;;;8.90;6.97;;;17.60;99.90;;;;;;5015477;28;20043;-78
2022/08/12 02:53:36;;;;;;;9.05;6.55;;;17.60;99.90;;;;;;5015802;28;20061;-78
2022/08/12 02:56:04;;;;;;;10.10;6.85;;;17.60;99.90;;;;;;5030539;28;20037;-78
2022/08/12 02:58:34;;;;;;;8.98;6.00;;;17.60;99.90;;;;;;5032097;28;20102;-78
2022/08/12 03:01:03;;;;;;;9.48;6.15;;;17.60;99.90;;;;;;5015803;28;20492;-78
2022/08/12 03:03:32;;;;;;;9.77;6.20;;;17.60;99.90;;;;;;5015648;28;20045;-78
2022/08/12 03:06:30;;;;;;;8.85;6.90;;;17.50;99.90;;;;;;5000474;28;20045;-77
2022/08/12 03:08:58;;;;;;;8.93;5.68;;;17.50;99.90;;;;;;5028851;28;20049;-78
2022/08/12 03:11:53;;;;;;;9.77;7.65;;;17.50;99.90;;;;;;5001042;28;20112;-78
2022/08/12 03:14:25;;;;;;;9.45;7.00;;;17.50;99.90;;;;;;5032170;28;20491;-78
2022/08/12 03:17:08;;;;;;;10.55;5.90;;;17.50;99.90;;;;;;5011607;28;20041;-78
2022/08/12 03:19:38;;;;;;;8.25;6.10;;;17.50;99.90;;;;;;5025192;28;20120;-78
2022/08/12 03:22:11;;;;;;;9.48;7.22;;;17.40;99.90;;;;;;5031403;28;20073;-78
2022/08/12 03:24:43;;;;;;;10.00;7.80;;;17.40;99.90;;;;;;5031636;28;20056;-78
2022/08/12 03:27:11;;;;;;;;;;;17.30;99.90;;;;;;5018915;28;20512;-78
2022/08/12 03:29:37;;;;;;;10.68;7.78;;;17.30;99.90;;;;;;5015237;28;20442;-78
2022/08/12 03:32:05;;;;;;;10.77;7.65;;;17.30;99.90;;;;;;5030932;28;20116;-78
2022/08/12 03:34:34;;;;;;;9.98;7.38;;;17.20;99.90;;;;;;5014915;28;20426;-78
2022/08/12 03:37:04;;;;;;;8.82;6.75;;;17.20;99.90;;;;;;5027301;28;20034;-78
2022/08/12 03:42:12;;;;;;;8.98;7.20;;;17.20;99.90;;;;;;5030028;28;20124;-78
2022/08/12 04:01:56;;;;;;;12.50;9.80;;;16.80;99.90;;;;;;5018739;28;20046;-78
2022/08/12 04:04:24;;;;;;;11.70;10.27;;;16.80;99.90;;;;;;4994768;28;20076;-78
2022/08/12 04:06:50;;;;;;;11.70;9.07;;;16.70;99.90;;;;;;5001982;28;20065;-78
2022/08/12 04:09:20;;;;;;;12.52;9.88;;;16.70;99.90;;;;;;5031386;28;20042;-78
2022/08/12 04:14:31;;;;;;;12.07;9.50;;;16.60;99.90;;;;;;5006275;28;20096;-77
2022/08/12 04:16:57;;;;;;;13.38;10.70;;;16.50;99.90;;;;;;5031245;28;20034;-78
2022/08/12 04:19:24;;;;;;;10.05;7.38;;;16.50;99.90;;;;;;5030846;28;20064;-78
2022/08/12 04:21:51;;;;;;;13.25;10.35;;;16.50;99.90;;;;;;5026600;28;20041;-78
2022/08/12 04:24:19;;;;;;;11.10;9.38;;;16.50;99.90;;;;;;5021897;28;20106;-78
2022/08/12 04:26:45;;;;;;;11.90;6.97;;;16.40;99.90;;;;;;5030636;28;20045;-78
2022/08/12 04:29:11;;;;;;;15.15;11.68;;;16.40;99.90;;;;;;4998278;28;20523;-78
2022/08/12 04:31:41;;;;;;;15.50;10.35;;;16.30;99.90;;;;;;5030335;28;20041;-77
2022/08/12 04:34:09;;;;;;;11.85;9.57;;;16.30;99.90;;;;;;5014231;28;20037;-78
2022/08/12 04:36:40;;;;;;;10.93;8.57;;;16.30;99.90;;;;;;5014321;28;20049;-78
2022/08/12 04:39:08;;;;;;;12.77;10.15;;;16.40;99.90;;;;;;5014664;28;20053;-77
2022/08/12 04:41:34;;;;;;;14.95;9.73;;;16.40;99.90;;;;;;5030490;28;20049;-78
2022/08/12 04:44:00;;;;;;;11.73;8.70;;;16.40;99.90;;;;;;5017866;28;20080;-78
2022/08/12 04:46:26;;;;;;;13.50;10.55;;;16.40;99.90;;;;;;5018168;28;20412;-78
2022/08/12 04:48:53;;;;;;;12.95;10.20;;;16.40;99.90;;;;;;4998401;28;20041;-78
2022/08/12 04:51:19;;;;;;;13.63;10.20;;;16.40;99.90;;;;;;5008804;28;20041;-78
2022/08/12 04:53:48;;;;;;;11.50;9.70;;;16.40;99.90;;;;;;5017846;28;20435;-78
2022/08/12 04:56:15;;;;;;;12.50;9.43;;;16.40;99.90;;;;;;5025251;28;20041;-78
2022/08/12 04:58:42;;;;;;;11.20;7.88;;;16.40;99.90;;;;;;5017630;28;20095;-78
2022/08/12 05:01:09;;;;;;;9.95;8.10;;;16.50;99.90;;;;;;5034719;28;20033;-78
2022/08/12 05:03:36;;;;;;;11.32;8.48;;;16.50;99.90;;;;;;5033683;28;20033;-78
2022/08/12 05:06:03;;;;;;;12.32;9.65;;;16.50;99.90;;;;;;5003972;28;20041;-77
2022/08/12 05:08:30;;;;;;;11.00;9.50;;;16.60;99.90;;;;;;5017780;28;20117;-78
2022/08/12 05:10:57;;;;;;;14.85;9.40;;;16.60;99.90;;;;;;5034387;28;20435;-78
2022/08/12 05:13:27;;;;;;;13.18;9.18;;;16.60;99.90;;;;;;5033978;28;20041;-78
2022/08/12 05:15:52;;;;;;;12.18;9.25;;;16.70;99.90;;;;;;5014092;28;20065;-78
2022/08/12 05:18:19;;;;;;;11.10;8.45;;;16.70;99.90;;;;;;5031745;28;20033;-78
2022/08/12 05:20:47;;;;;;;12.02;8.55;;;16.80;99.90;;;;;;5016688;28;20037;-78
2022/08/12 05:23:16;;;;;;;11.10;8.63;;;16.80;99.90;;;;;;5034052;28;20555;-78
2022/08/12 05:25:46;;;;;;;12.40;6.60;;;16.90;99.90;;;;;;5017492;28;20518;-78
2022/08/12 05:28:14;;;;;;;11.32;8.52;;;16.90;99.90;;;;;;5033255;28;20171;-78
2022/08/12 05:30:41;;;;;;;12.25;8.90;;;17.00;99.90;;;;;;5033683;28;20046;-78
2022/08/12 05:33:08;;;;;;;10.75;7.97;;;17.00;99.90;;;;;;5017285;28;20040;-78
2022/08/12 05:35:38;;;;;;;11.80;8.30;;;17.10;99.90;;;;;;5016199;28;20049;-78
2022/08/12 05:40:52;;;;;;;10.93;7.60;;;17.50;99.90;;;;;;5010261;28;20049;-78
2022/08/12 05:43:19;;;;;;;11.18;7.45;;;17.70;99.90;;;;;;5006066;28;20381;-78
2022/08/12 05:45:45;;;;;;;11.77;8.75;;;18.00;99.90;;;;;;5030111;28;20061;-78
2022/08/12 05:48:12;;;;;;;9.38;7.00;;;18.30;99.90;;;;;;5013231;28;20124;-78
2022/08/12 05:50:38;;;;;;;11.80;7.40;;;19.00;99.90;;;;;;5026369;28;20121;-78
2022/08/12 05:53:05;;;;;;;8.27;6.40;;;19.50;99.90;;;;;;5027117;28;20101;-76
2022/08/12 05:55:30;;;;;;;10.27;7.47;;;20.20;99.90;;;;;;5033407;28;20045;-76
2022/08/12 05:57:57;;;;;;;10.38;6.68;;;20.80;99.90;;;;;;5028183;28;20120;-75
2022/08/12 06:00:24;;;;;;;12.20;7.00;;;20.80;99.90;;;;;;5041353;28;20049;-76
2022/08/12 06:02:59;;;;;;;11.20;6.50;;;21.10;99.90;;;;;;5033113;28;20091;-76
2022/08/12 06:05:25;;;;;;;8.57;5.82;;;21.40;99.90;;;;;;5037162;28;20038;-76
2022/08/12 06:07:54;;;;;;;11.65;5.60;;;21.60;99.90;;;;;;5031077;28;20033;-76
2022/08/12 06:10:19;;;;;;;10.00;5.80;;;22.00;99.90;;;;;;5028984;28;20037;-77
2022/08/12 06:12:48;;;;;;;9.23;6.03;;;22.70;99.90;;;;;;5038300;28;20057;-76
2022/08/12 06:15:19;;;;;;;10.25;5.50;;;23.40;99.90;;;;;;5046808;28;20044;-77
2022/08/12 06:17:44;;;;;;;10.87;5.67;;;24.10;99.70;;;;;;5037186;28;20064;-77
2022/08/12 06:20:12;;;;;;;8.93;5.15;;;24.70;98.30;;;;;;5012517;28;20070;-76
2022/08/12 06:22:43;;;;;;;8.05;5.03;;;25.50;96.40;;;;;;5031919;28;20067;-76
2022/08/12 06:25:09;;;;;;;8.60;5.13;;;25.80;94.00;;;;;;5022902;28;20042;-76
2022/08/12 06:27:47;;;;;;;9.85;4.90;;;26.50;92.60;;;;;;5004932;28;20050;-76
2022/08/12 06:30:15;;;;;;;7.90;5.28;;;26.80;89.90;;;;;;5021174;28;20057;-77
2022/08/12 06:32:42;;;;;;;7.80;4.82;;;26.80;90.20;;;;;;5020731;28;20038;-76
2022/08/12 06:35:09;;;;;;;9.48;5.30;;;26.90;89.50;;;;;;5017680;28;20073;-76
2022/08/12 06:37:44;;;;;;;8.30;5.20;;;27.40;84.30;;;;;;5022456;28;20044;-76
2022/08/12 06:40:10;;;;;;;11.52;4.60;;;27.00;84.40;;;;;;5021240;28;20069;-76
2022/08/12 06:42:52;;;;;;;9.98;4.90;;;27.40;85.20;;;;;;5008313;28;20053;-77
2022/08/12 06:45:18;;;;;;;11.40;5.82;;;28.00;82.10;;;;;;5033450;28;20095;-76
2022/08/12 06:47:45;;;;;;;10.98;5.00;;;27.30;75.70;;;;;;5032908;28;20041;-76
2022/08/12 06:50:17;;;;;;;8.77;5.00;;;27.10;80.80;;;;;;5028192;28;20050;-76
2022/08/12 06:52:46;;;;;;;10.65;5.18;;;27.10;80.80;;;;;;5033086;28;20404;-76
2022/08/12 06:55:19;;;;;;;12.27;4.72;;;27.00;78.10;;;;;;5005506;28;20042;-76
2022/08/12 06:57:56;;;;;;;14.07;5.28;;;27.40;80.30;;;;;;5032599;28;20370;-76
2022/08/12 07:00:25;;;;;;;8.82;5.00;;;27.50;76.00;;;;;;5027475;28;20045;-76
2022/08/12 07:02:54;;;;;;;8.52;4.65;;;27.50;77.50;;;;;;5032284;28;20484;-76
2022/08/12 07:05:24;;;;;;;8.45;5.22;;;27.80;77.80;;;;;;5025477;28;20068;-76
2022/08/12 07:08:04;;;;;;;9.13;4.70;;;28.00;75.80;;;;;;5031636;28;20073;-76
2022/08/12 07:10:31;;;;;;;8.85;4.80;;;28.70;74.30;;;;;;5031893;28;20045;-77
2022/08/12 07:13:01;;;;;;;8.10;5.30;;;28.70;72.60;;;;;;5031453;28;20056;-79
2022/08/12 07:15:29;;;;;;;7.90;4.60;;;28.50;71.10;;;;;;5025883;28;20042;-79
2022/08/12 07:18:19;;;;;;;9.20;4.30;;;28.40;71.10;;;;;;5011840;28;20053;-79
2022/08/12 07:20:46;;;;;;;8.88;4.82;;;28.70;71.30;;;;;;5010508;28;20041;-80
2022/08/12 07:23:14;;;;;;;7.80;4.50;;;28.60;70.30;;;;;;4998152;28;20100;-80
2022/08/12 07:25:41;;;;;;;7.22;4.70;;;27.90;70.80;;;;;;5001624;28;20038;-80
2022/08/12 07:28:22;;;;;;;8.68;4.63;;;27.00;69.50;;;;;;5019317;28;20057;-80
2022/08/12 07:30:49;;;;;;;8.30;4.43;;;27.30;73.00;;;;;;5019234;28;20045;-79
2022/08/12 07:33:17;;;;;;;10.25;5.00;;;27.20;74.40;;;;;;5006393;28;20048;-79
2022/08/12 07:35:46;;;;;;;9.05;5.05;;;26.90;73.30;;;;;;4999530;28;20041;-79
2022/08/12 07:38:32;;;;;;;10.50;4.18;;;27.10;74.90;;;;;;5003340;28;20076;-80
2022/08/12 07:41:30;;;;;;;8.63;4.80;;;27.90;74.10;;;;;;5015896;28;20029;-79
2022/08/12 07:44:07;;;;;;;9.50;5.38;;;28.10;71.30;;;;;;5008882;28;20056;-79
2022/08/12 07:46:40;;;;;;;10.23;5.20;;;27.50;70.60;;;;;;5010825;28;20158;-79
2022/08/12 07:49:14;;;;;;;11.77;4.82;;;27.50;72.90;;;;;;5020916;28;20034;-80
2022/08/12 07:51:41;;;;;;;9.82;4.20;;;27.80;73.20;;;;;;5010295;28;20049;-80
2022/08/12 07:54:08;;;;;;;9.98;4.55;;;28.00;72.80;;;;;;5017995;28;20053;-80
2022/08/12 07:56:39;;;;;;;9.80;4.47;;;28.60;72.50;;;;;;5020547;28;20069;-80
2022/08/12 07:59:07;;;;;;;;;;;28.90;69.90;;;;;;5018073;28;20064;-80
2022/08/12 08:01:36;;;;;;;9.45;4.60;;;28.90;69.10;;;;;;5016602;28;20319;-80
2022/08/12 08:06:48;;;;;;;10.70;5.22;;;29.70;67.70;;;;;;5014268;28;20132;-80
2022/08/12 08:09:16;;;;;;;8.70;4.40;;;30.10;64.90;;;;;;5018375;28;20042;-80
2022/08/12 08:14:30;;;;;;;10.98;4.50;;;30.40;64.60;;;;;;5017465;28;20103;-80
2022/08/12 08:16:58;;;;;;;10.90;4.60;;;30.40;62.90;;;;;;5037325;28;20560;-80
2022/08/12 08:19:25;;;;;;;14.02;4.40;;;30.40;60.90;;;;;;5016692;28;20095;-80
2022/08/12 08:21:57;;;;;;;12.20;4.85;;;30.20;61.10;;;;;;5031084;28;20042;-80
2022/08/12 08:24:25;;;;;;;10.55;4.32;;;29.30;60.40;;;;;;5000556;28;20041;-80
2022/08/12 08:26:53;;;;;;;11.85;5.50;;;29.50;62.50;;;;;;4999449;28;20519;-81
2022/08/12 08:29:20;;;;;;;10.00;4.22;;;29.00;59.90;;;;;;5027891;28;20120;-79
2022/08/12 08:31:49;;;;;;;8.80;4.55;;;29.30;62.90;;;;;;5014656;28;20512;-79
2022/08/12 08:34:17;;;;;;;7.50;4.00;;;29.50;61.00;;;;;;5002371;28;20030;-80
2022/08/12 08:36:43;;;;;;;7.15;4.25;;;29.90;60.60;;;;;;5006233;28;20098;-80
2022/08/12 08:39:11;;;;;;;10.30;4.50;;;29.30;60.40;;;;;;5014326;28;20064;-80
2022/08/12 08:44:22;;;;;;;11.48;4.90;;;28.60;59.60;;;;;;5021669;28;20042;-80
2022/08/12 08:46:48;;;;;;;8.73;3.95;;;28.90;59.60;;;;;;4981487;28;20572;-80
2022/08/12 08:49:16;;;;;;;8.43;4.03;;;29.50;61.40;;;;;;4993447;28;20506;-80
2022/08/12 08:51:43;;;;;;;12.20;3.70;;;29.30;60.30;;;;;;5014046;28;20037;-80
2022/08/12 08:54:11;;;;;;;7.82;3.80;;;29.70;61.70;;;;;;5015875;28;20065;-80
2022/08/12 08:56:48;;;;;;;9.63;3.92;;;29.90;58.90;;;;;;5032578;28;20506;-80
2022/08/12 08:59:18;;;;;;;8.85;3.45;;;30.30;58.50;;;;;;5016882;28;20507;-80
2022/08/12 09:01:45;;;;;;;8.65;3.38;;;30.70;56.60;;;;;;5029151;28;20077;-80
2022/08/12 09:04:12;;;;;;;7.32;3.28;;;31.00;55.10;;;;;;5031178;28;20083;-79
2022/08/12 09:06:40;;;;;;;10.05;3.00;;;31.20;52.70;;;;;;5003869;28;20488;-80
2022/08/12 09:09:07;;;;;;;7.75;3.20;;;30.80;54.40;;;;;;5032539;28;20045;-80
2022/08/12 09:14:17;;;;;;;8.55;3.00;;;30.80;52.80;;;;;;5032194;28;20049;-80
2022/08/12 09:16:43;;;;;;;9.95;3.30;;;30.70;51.20;;;;;;5016117;28;20033;-80
2022/08/12 09:19:12;;;;;;;7.15;3.10;;;30.70;51.10;;;;;;5031906;28;20040;-80
2022/08/12 09:21:39;;;;;;;7.45;2.85;;;30.80;50.70;;;;;;4999739;28;20056;-80
2022/08/12 09:24:06;;;;;;;6.90;3.25;;;30.50;51.80;;;;;;4997149;28;20045;-80
2022/08/12 09:26:33;;;;;;;8.45;3.15;;;30.60;50.90;;;;;;5004340;28;20584;-80
2022/08/12 09:29:00;;;;;;;8.75;3.03;;;30.50;50.10;;;;;;5018861;28;20054;-80
2022/08/12 09:31:26;;;;;;;7.90;2.80;;;30.50;51.00;;;;;;5023457;28;20560;-80
2022/08/12 09:33:55;;;;;;;9.05;3.05;;;30.80;51.60;;;;;;5003679;28;20052;-80
2022/08/12 09:36:21;;;;;;;5.35;2.53;;;30.80;49.60;;;;;;5022035;28;20491;-80
2022/08/12 09:38:47;;;;;;;8.15;2.85;;;31.20;49.70;;;;;;5020677;28;20117;-80
2022/08/12 09:41:14;;;;;;;6.63;2.50;;;31.30;47.80;;;;;;5025496;28;20245;-79
2022/08/12 09:46:31;;;;;;;6.15;2.60;;;31.50;47.70;;;;;;5031503;28;20056;-79
2022/08/12 09:48:58;;;;;;;7.55;2.70;;;31.50;46.10;;;;;;5009673;28;20045;-78
2022/08/12 09:51:32;;;;;;;9.40;2.90;;;31.40;45.20;;;;;;5015140;28;20504;-79
2022/08/12 09:53:58;;;;;;;7.22;2.70;;;31.50;45.20;;;;;;5009023;28;20046;-79
2022/08/12 09:56:24;;;;;;;12.95;3.25;;;31.80;46.30;;;;;;5022300;28;20075;-78
2022/08/12 09:58:52;;;;;;;6.18;2.50;;;32.00;45.20;;;;;;5023593;28;20041;-79
2022/08/12 10:01:18;;;;;;;7.75;2.95;;;32.00;44.90;;;;;;5026393;28;20460;-79
2022/08/12 10:03:45;;;;;;;6.32;2.50;;;32.30;42.90;;;;;;4987313;28;20045;-78
2022/08/12 10:06:11;;;;;;;7.32;2.80;;;32.40;42.60;;;;;;5029745;28;20057;-79
2022/08/12 10:08:38;;;;;;;8.23;2.67;;;32.20;41.50;;;;;;4998694;28;20492;-79
2022/08/12 10:13:52;;;;;;;10.05;2.75;;;32.50;41.20;;;;;;5029099;28;20512;-79
2022/08/12 10:16:20;;;;;;;9.32;2.70;;;32.70;39.60;;;;;;5031133;28;20041;-79
2022/08/12 10:19:01;;;;;;;6.60;2.50;;;32.40;40.10;;;;;;4995926;28;20044;-77
2022/08/12 10:21:37;;;;;;;6.68;2.40;;;32.40;39.00;;;;;;5030267;28;20049;-80
2022/08/12 10:24:07;;;;;;;8.77;2.42;;;32.10;38.30;;;;;;5030549;28;20094;-80
2022/08/12 10:29:38;;;;;;;7.90;2.25;;;32.40;39.70;;;;;;5014261;28;20645;-80
2022/08/12 10:32:18;;;;;;;6.35;2.20;;;32.50;38.50;;;;;;4999842;28;20034;-80
2022/08/12 10:34:44;;;;;;;5.47;2.33;;;32.80;36.20;;;;;;5026947;28;20124;-79
2022/08/12 10:37:10;;;;;;;8.45;2.75;;;32.80;37.20;;;;;;5011119;28;20117;-79
2022/08/12 10:39:38;;;;;;;6.97;2.38;;;32.80;35.90;;;;;;5013034;28;20034;-79
2022/08/12 10:44:59;;;;;;;7.65;2.45;;;32.80;36.70;;;;;;5027990;28;20045;-79
2022/08/12 10:47:29;;;;;;;6.40;2.38;;;32.80;34.80;;;;;;5031077;28;20045;-79
2022/08/12 10:49:55;;;;;;;8.98;2.58;;;32.80;36.00;;;;;;4998100;28;20041;-79
2022/08/12 10:52:23;;;;;;;5.70;2.20;;;32.80;36.80;;;;;;5030138;28;20040;-83
2022/08/12 10:54:52;;;;;;;8.02;2.45;;;32.80;36.40;;;;;;5029880;28;20034;-80
2022/08/12 10:57:19;;;;;;;7.43;2.40;;;32.90;35.10;;;;;;5029770;28;20060;-79
2022/08/12 10:59:45;;;;;;;7.55;2.30;;;32.80;35.60;;;;;;5030974;28;20045;-80
2022/08/12 11:02:14;;;;;;;6.93;2.30;;;32.90;36.00;;;;;;5029762;28;20580;-80
2022/08/12 11:04:41;;;;;;;8.27;2.22;;;32.90;35.90;;;;;;5029185;28;20049;-80
2022/08/12 11:07:08;;;;;;;5.53;2.30;;;33.00;35.20;;;;;;5013771;28;20038;-80
2022/08/12 11:09:36;;;;;;;9.38;2.40;;;33.10;34.40;;;;;;5014152;28;20045;-79
2022/08/12 11:12:05;;;;;;;7.93;2.30;;;33.00;33.40;;;;;;5030767;28;20060;-79
2022/08/12 11:14:32;;;;;;;4.78;2.00;;;32.90;32.70;;;;;;5028322;28;20430;-79
2022/08/12 11:17:00;;;;;;;5.80;2.38;;;32.80;32.60;;;;;;5030337;28;20038;-80
2022/08/12 11:19:27;;;;;;;7.03;2.30;;;33.00;33.80;;;;;;5013545;28;20048;-79
2022/08/12 11:21:54;;;;;;;5.18;2.28;;;33.20;33.70;;;;;;5013437;28;20045;-80
2022/08/12 11:24:23;;;;;;;4.68;2.17;;;33.30;33.30;;;;;;4996448;28;20064;-80
2022/08/12 11:26:50;;;;;;;19.73;2.63;;;33.40;32.20;;;;;;5013932;28;20091;-79
2022/08/12 11:29:24;;;;;;;5.82;2.10;;;33.40;33.10;;;;;;5030141;28;20045;-79
2022/08/12 11:31:50;;;;;;;5.50;2.10;;;33.30;32.10;;;;;;5013462;28;20046;-80
2022/08/12 11:34:16;;;;;;;6.57;2.10;;;33.20;31.30;;;;;;5028818;28;20047;-80
2022/08/12 11:36:50;;;;;;;6.70;2.22;;;33.30;32.40;;;;;;5019677;28;20132;-80
2022/08/12 11:39:16;;;;;;;5.90;2.30;;;33.40;32.80;;;;;;5025843;28;20112;-80
2022/08/12 11:41:42;;;;;;;6.05;2.30;;;33.50;32.00;;;;;;5011301;28;20042;-78
2022/08/12 11:44:08;;;;;;;5.35;2.13;;;33.50;32.80;;;;;;5010352;28;20049;-79
2022/08/12 11:46:38;;;;;;;6.88;2.33;;;33.60;32.00;;;;;;4991830;28;20395;-80
2022/08/12 11:49:05;;;;;;;5.00;2.03;;;33.50;31.70;;;;;;5021703;28;20567;-80
2022/08/12 11:51:31;;;;;;;6.40;2.30;;;33.60;31.20;;;;;;5012703;28;20120;-79
2022/08/12 11:53:57;;;;;;;6.45;2.25;;;33.40;31.60;;;;;;5007866;28;20039;-81
2022/08/12 11:56:23;;;;;;;5.32;2.17;;;33.40;31.80;;;;;;4998245;28;20121;-81
2022/08/12 11:58:49;;;;;;;7.10;2.20;;;33.50;31.60;;;;;;5010443;28;20739;-81
2022/08/12 12:01:16;;;;;;;7.03;2.08;;;33.60;31.60;;;;;;5013371;28;20103;-81
2022/08/12 12:03:42;;;;;;;5.85;2.20;;;33.30;31.20;;;;;;5011579;28;20145;-81
2022/08/12 12:06:07;;;;;;;4.35;1.90;;;33.40;31.50;;;;;;5010551;28;20552;-81
2022/08/12 12:08:33;;;;;;;5.65;2.10;;;33.40;30.80;;;;;;4996266;28;20124;-82
2022/08/12 12:10:59;;;;;;;7.35;2.30;;;33.50;30.20;;;;;;5029523;28;20504;-81
2022/08/12 12:13:25;;;;;;;6.30;2.17;;;33.40;30.00;;;;;;5029669;28;20048;-82
2022/08/12 12:15:51;;;;;;;5.68;2.00;;;33.40;31.00;;;;;;5010568;28;20034;-81
2022/08/12 12:18:28;;;;;;;5.15;2.20;;;33.50;31.00;;;;;;5012913;28;20034;-81
2022/08/12 12:20:56;;;;;;;7.05;2.28;;;33.20;30.80;;;;;;5010853;28;20412;-81
2022/08/12 12:23:22;;;;;;;5.40;2.10;;;33.50;31.20;;;;;;5026582;28;20033;-81
2022/08/12 12:25:48;;;;;;;4.85;2.03;;;33.50;31.50;;;;;;4995977;28;20041;-81
2022/08/12 12:28:14;;;;;;;5.40;2.40;;;33.60;31.40;;;;;;5029400;28;20061;-81
2022/08/12 12:30:41;;;;;;;7.38;2.30;;;33.20;30.90;;;;;;5029422;28;20183;-82
2022/08/12 12:33:08;;;;;;;6.13;2.40;;;33.40;31.10;;;;;;5027467;28;20487;-81
2022/08/12 12:35:34;;;;;;;6.10;2.20;;;33.50;31.20;;;;;;5011028;28;20134;-82
2022/08/12 12:38:04;;;;;;;4.60;2.20;;;33.60;30.00;;;;;;5029515;28;20033;-81
2022/08/12 12:40:31;;;;;;;6.97;2.30;;;33.60;30.40;;;;;;5029190;28;20171;-81
2022/08/12 12:42:57;;;;;;;6.30;2.50;;;33.70;30.60;;;;;;5011439;28;20540;-81
2022/08/12 12:45:23;;;;;;;6.43;2.50;;;33.40;30.20;;;;;;5011590;28;20120;-80
2022/08/12 12:47:55;;;;;;;6.05;2.53;;;33.50;30.10;;;;;;5026339;28;20042;-80
2022/08/12 12:50:21;;;;;;;6.90;2.45;;;33.60;30.60;;;;;;5025279;28;20038;-81
2022/08/12 12:52:47;;;;;;;9.00;2.53;;;33.60;30.70;;;;;;5013534;28;20572;-81
2022/08/12 12:55:14;;;;;;;7.30;2.65;;;33.40;30.50;;;;;;5009159;28;20125;-81
2022/08/12 12:57:41;;;;;;;5.80;2.40;;;33.50;30.80;;;;;;5012758;28;20037;-81
2022/08/12 13:00:14;;;;;;;5.00;2.45;;;33.40;30.30;;;;;;5007420;28;20235;-81
2022/08/12 13:02:54;;;;;;;7.95;2.40;;;33.40;29.80;;;;;;5028304;28;20076;-81
2022/08/12 13:05:24;;;;;;;7.68;2.47;;;33.00;30.90;;;;;;5009634;28;20053;-81
2022/08/12 13:07:53;;;;;;;6.82;2.30;;;33.20;30.80;;;;;;5040336;28;20046;-81
2022/08/12 13:10:22;;;;;;;7.82;2.65;;;33.20;31.30;;;;;;5016347;28;20045;-81
2022/08/12 13:12:52;;;;;;;7.57;2.53;;;33.40;30.30;;;;;;5033017;28;20500;-80
2022/08/12 13:15:17;;;;;;;5.95;2.33;;;33.40;30.60;;;;;;5031831;28;20057;-81
2022/08/12 13:17:55;;;;;;;5.68;2.47;;;33.40;30.90;;;;;;4988790;28;20431;-81
2022/08/12 13:20:22;;;;;;;5.60;2.50;;;33.40;31.00;;;;;;5031695;28;20045;-81
2022/08/12 13:22:48;;;;;;;6.30;2.50;;;33.50;30.70;;;;;;5015581;28;20560;-81
2022/08/12 13:25:16;;;;;;;5.28;2.50;;;33.40;30.50;;;;;;5031325;28;20045;-81
2022/08/12 13:27:46;;;;;;;7.47;2.60;;;33.50;30.80;;;;;;5032364;28;20057;-81
2022/08/12 13:30:19;;;;;;;8.43;2.72;;;33.40;30.40;;;;;;5015438;28;20053;-80
2022/08/12 13:32:57;;;;;;;5.13;2.40;;;33.60;30.20;;;;;;5032738;28;20492;-80
2022/08/12 13:35:25;;;;;;;8.27;2.90;;;33.70;30.00;;;;;;5030957;28;20439;-81
2022/08/12 13:37:53;;;;;;;5.50;2.60;;;33.10;29.60;;;;;;5032354;28;20095;-81
2022/08/12 13:40:26;;;;;;;7.50;2.50;;;33.20;30.00;;;;;;5015859;28;20487;-81
2022/08/12 13:42:56;;;;;;;8.75;2.90;;;33.30;30.90;;;;;;5016518;28;20041;-81
2022/08/12 13:45:26;;;;;;;5.07;2.60;;;33.30;30.40;;;;;;5015083;28;20072;-80
2022/08/12 13:48:05;;;;;;;7.78;2.40;;;33.30;30.20;;;;;;5032422;28;20124;-81
2022/08/12 13:50:40;;;;;;;5.03;2.30;;;33.40;30.80;;;;;;5008699;28;20087;-81
2022/08/12 13:53:09;;;;;;;5.55;2.50;;;33.30;30.50;;;;;;5028708;28;20037;-81
2022/08/12 13:55:42;;;;;;;7.03;2.70;;;33.30;30.50;;;;;;5027257;28;20144;-81
2022/08/12 13:58:10;;;;;;;6.30;2.70;;;33.40;30.60;;;;;;4996779;28;20103;-81
2022/08/12 14:00:37;;;;;;;6.65;2.78;;;33.50;29.80;;;;;;5013944;28;20067;-82
2022/08/12 14:03:03;;;;;;;6.55;2.55;;;33.20;30.40;;;;;;5031699;28;20033;-81
2022/08/12 14:05:29;;;;;;;7.13;2.70;;;33.10;30.70;;;;;;5030974;28;20045;-81
2022/08/12 14:08:04;;;;;;;7.35;2.35;;;33.20;30.90;;;;;;5032693;28;20046;-81
2022/08/12 14:10:36;;;;;;;5.35;2.70;;;33.40;30.10;;;;;;5016289;28;20103;-80
2022/08/12 14:13:11;;;;;;;6.00;2.50;;;33.20;30.00;;;;;;5041016;28;20048;-78
2022/08/12 14:15:45;;;;;;;5.78;2.45;;;33.00;30.60;;;;;;5016287;28;20037;-79
2022/08/12 14:18:16;;;;;;;5.40;2.53;;;33.10;30.70;;;;;;5034593;28;20045;-79
2022/08/12 14:20:43;;;;;;;;;;;32.90;29.50;;;;;;5037408;28;20073;-80
2022/08/12 14:23:10;;;;;;;5.55;2.33;;;32.80;29.30;;;;;;5025884;28;19917;-80
2022/08/12 14:25:38;;;;;;;4.90;2.30;;;32.70;30.10;;;;;;5002952;28;20053;-79
2022/08/12 14:28:10;;;;;;;6.72;2.38;;;32.80;30.30;;;;;;5037584;28;20126;-78
2022/08/12 14:30:55;;;;;;;4.85;2.25;;;32.80;30.10;;;;;;5034177;28;20121;-80
2022/08/12 14:33:28;;;;;;;9.52;2.47;;;32.80;30.80;;;;;;5012520;28;20060;-79
2022/08/12 14:35:56;;;;;;;5.15;2.30;;;32.70;30.40;;;;;;5029961;28;20108;-79
2022/08/12 14:38:25;;;;;;;5.75;2.30;;;32.90;30.50;;;;;;5028365;28;20124;-79
2022/08/12 14:40:57;;;;;;;5.63;2.38;;;32.50;29.90;;;;;;5032088;28;20500;-79
2022/08/12 14:43:27;;;;;;;5.25;2.53;;;32.50;30.60;;;;;;5011578;28;20042;-79
2022/08/12 14:45:55;;;;;;;5.43;2.20;;;32.50;30.20;;;;;;5030410;28;20515;-79
2022/08/12 14:48:21;;;;;;;5.40;2.28;;;32.50;30.20;;;;;;5024546;28;20037;-79